Time;durP1;ratioP1;P1;durP2;ratioP2;P2;SDS_P1;SDS_P2;PMS_P1;PMS_P2;Temp;Humidity;BMP_temperature;BMP_pressure;BME280_temperature;BME280_humidity;BME280_pressure;Samples;Min_cycle;Max_cycle;Signal;HPM_P1;HPM_P2
2021/10/29 00:01:51;;;;;;;21.00;13.53;;;4.90;99.90;;;;;;1845197;76;21172;-78
2021/10/29 00:04:17;;;;;;;21.05;14.33;;;5.00;99.90;;;;;;1843188;76;21086;-77
2021/10/29 00:06:44;;;;;;;22.85;13.93;;;4.90;99.90;;;;;;1830027;76;21085;-79
2021/10/29 00:09:10;;;;;;;18.75;12.68;;;4.90;99.90;;;;;;1807451;77;21148;-78
2021/10/29 00:11:36;;;;;;;18.05;13.10;;;4.90;99.90;;;;;;1851124;76;21578;-78
2021/10/29 00:14:02;;;;;;;23.07;14.23;;;4.80;99.90;;;;;;1853474;76;21541;-78
2021/10/29 00:16:28;;;;;;;19.80;13.83;;;4.80;99.90;;;;;;1840972;76;21069;-77
2021/10/29 00:18:54;;;;;;;19.48;13.98;;;4.80;99.90;;;;;;1840832;76;21196;-78
2021/10/29 00:21:20;;;;;;;21.27;14.30;;;4.80;99.90;;;;;;1846965;76;21101;-78
2021/10/29 00:23:47;;;;;;;19.90;14.10;;;4.80;99.90;;;;;;1836450;76;21045;-78
2021/10/29 00:26:13;;;;;;;22.50;13.60;;;4.70;99.90;;;;;;1841562;76;21050;-78
2021/10/29 00:28:39;;;;;;;21.00;14.38;;;4.70;99.90;;;;;;1853325;76;21090;-78
2021/10/29 00:31:05;;;;;;;24.67;15.30;;;4.60;99.90;;;;;;1836862;76;21160;-78
2021/10/29 00:33:31;;;;;;;23.87;14.40;;;4.60;99.90;;;;;;1849713;76;21129;-78
2021/10/29 00:35:57;;;;;;;27.30;15.50;;;4.60;99.90;;;;;;1849615;76;21204;-78
2021/10/29 00:38:24;;;;;;;25.23;16.02;;;4.50;99.90;;;;;;1840389;76;21216;-78
2021/10/29 00:40:51;;;;;;;24.70;15.63;;;4.50;99.90;;;;;;1847065;77;21090;-79
2021/10/29 00:43:17;;;;;;;28.17;14.75;;;4.40;99.90;;;;;;1838824;76;21155;-78
2021/10/29 00:45:44;;;;;;;20.90;13.75;;;4.50;99.90;;;;;;1839755;76;21129;-78
2021/10/29 00:48:12;;;;;;;22.60;14.18;;;4.60;99.90;;;;;;1835489;76;21070;-77
2021/10/29 00:50:38;;;;;;;22.42;13.75;;;4.60;99.90;;;;;;1841753;76;21164;-78
2021/10/29 00:53:04;;;;;;;23.60;13.83;;;4.50;99.90;;;;;;1841784;76;21182;-78
2021/10/29 00:55:30;;;;;;;19.32;13.68;;;4.50;99.90;;;;;;1835246;76;21236;-78
2021/10/29 00:57:56;;;;;;;25.88;13.98;;;4.40;99.90;;;;;;1840940;76;21110;-78
2021/10/29 01:00:23;;;;;;;31.25;14.43;;;4.50;99.90;;;;;;1850710;76;21564;-78
2021/10/29 01:02:49;;;;;;;24.57;14.23;;;4.40;99.90;;;;;;1846742;76;21118;-79
2021/10/29 01:05:15;;;;;;;22.07;14.58;;;4.40;99.90;;;;;;1855403;76;21066;-78
2021/10/29 01:07:41;;;;;;;20.25;13.83;;;4.40;99.90;;;;;;1849874;76;21210;-79
2021/10/29 01:10:07;;;;;;;20.32;14.00;;;4.40;99.90;;;;;;1853051;76;21114;-78
2021/10/29 01:12:33;;;;;;;21.15;13.15;;;4.30;99.90;;;;;;1852399;76;21051;-79
2021/10/29 01:15:00;;;;;;;22.25;13.78;;;4.30;99.90;;;;;;1851197;76;21270;-78
2021/10/29 01:17:26;;;;;;;21.25;14.93;;;4.20;99.90;;;;;;1840978;76;21152;-78
2021/10/29 01:19:52;;;;;;;23.45;14.98;;;4.20;99.90;;;;;;1842723;76;21152;-78
2021/10/29 01:22:18;;;;;;;27.45;13.88;;;4.20;99.90;;;;;;1839782;76;21095;-78
2021/10/29 01:24:44;;;;;;;25.25;15.28;;;4.20;99.90;;;;;;1841795;76;21082;-78
2021/10/29 01:27:10;;;;;;;22.93;15.10;;;4.20;99.90;;;;;;1829751;76;21155;-78
2021/10/29 01:29:37;;;;;;;26.30;14.23;;;4.20;99.90;;;;;;1840185;76;21274;-78
2021/10/29 01:32:03;;;;;;;23.30;14.85;;;4.10;99.90;;;;;;1834679;76;21161;-78
2021/10/29 01:34:29;;;;;;;23.15;14.25;;;4.10;99.90;;;;;;1841618;76;21080;-78
2021/10/29 01:36:55;;;;;;;19.55;14.00;;;4.10;99.90;;;;;;1830798;76;21158;-78
2021/10/29 01:39:21;;;;;;;26.33;12.90;;;4.10;99.90;;;;;;1847823;76;21097;-78
2021/10/29 01:41:47;;;;;;;21.12;14.03;;;4.10;99.90;;;;;;1835723;76;21160;-79
2021/10/29 01:44:14;;;;;;;20.23;13.88;;;4.00;99.90;;;;;;1834543;76;21058;-78
2021/10/29 01:46:40;;;;;;;24.23;14.47;;;4.00;99.90;;;;;;1833447;76;21614;-78
2021/10/29 01:49:06;;;;;;;21.00;14.18;;;4.00;99.90;;;;;;1847434;76;21084;-79
2021/10/29 01:51:32;;;;;;;24.63;14.15;;;4.00;99.90;;;;;;1846951;76;21092;-78
2021/10/29 01:53:58;;;;;;;26.52;16.23;;;3.90;99.90;;;;;;1837209;76;21081;-79
2021/10/29 01:56:24;;;;;;;20.90;14.00;;;3.90;99.90;;;;;;1829535;76;21090;-78
2021/10/29 01:58:51;;;;;;;21.40;13.98;;;3.90;99.90;;;;;;1843367;76;21219;-78
2021/10/29 02:01:17;;;;;;;21.15;15.10;;;3.90;99.90;;;;;;1832716;76;21553;-78
2021/10/29 02:03:43;;;;;;;20.70;14.18;;;3.90;99.90;;;;;;1828866;76;21144;-79
2021/10/29 02:06:09;;;;;;;25.15;14.68;;;3.80;99.90;;;;;;1838475;76;21058;-79
2021/10/29 02:08:35;;;;;;;19.92;14.23;;;3.80;99.90;;;;;;1845457;76;21090;-79
2021/10/29 02:11:01;;;;;;;24.05;14.63;;;3.80;99.90;;;;;;1843069;76;21090;-78
2021/10/29 02:13:28;;;;;;;23.65;14.93;;;3.80;99.90;;;;;;1840919;76;21094;-78
2021/10/29 02:15:54;;;;;;;30.40;14.83;;;3.90;99.90;;;;;;1833186;76;21168;-78
2021/10/29 02:18:20;;;;;;;25.97;14.75;;;3.80;99.90;;;;;;1838548;76;21089;-78
2021/10/29 02:20:46;;;;;;;48.63;15.23;;;3.90;99.90;;;;;;1837430;76;21147;-78
2021/10/29 02:23:12;;;;;;;53.92;13.80;;;3.90;99.90;;;;;;1845238;76;21161;-78
2021/10/29 02:25:43;;;;;;;45.30;13.32;;;4.00;99.90;;;;;;1836221;76;21176;-78
2021/10/29 02:28:06;;;;;;;83.12;16.97;;;4.00;99.90;;;;;;1838353;76;21123;-79
2021/10/29 02:30:32;;;;;;;63.38;17.67;;;4.00;99.90;;;;;;1842377;77;21086;-78
2021/10/29 02:32:58;;;;;;;57.10;17.55;;;4.00;99.90;;;;;;1836122;76;21111;-78
2021/10/29 02:35:24;;;;;;;70.28;16.15;;;4.00;99.90;;;;;;1838560;76;21168;-78
2021/10/29 02:37:51;;;;;;;47.15;15.38;;;4.00;99.90;;;;;;1845284;76;21089;-78
2021/10/29 02:40:17;;;;;;;144.55;16.62;;;3.90;99.90;;;;;;1846760;76;21129;-78
2021/10/29 02:42:43;;;;;;;94.83;16.70;;;3.90;99.90;;;;;;1828434;76;21085;-77
2021/10/29 02:45:09;;;;;;;43.50;17.98;;;3.90;99.90;;;;;;1833463;76;21152;-78
2021/10/29 02:47:35;;;;;;;108.85;19.48;;;3.90;99.90;;;;;;1845277;76;21156;-78
2021/10/29 02:50:01;;;;;;;30.05;16.85;;;3.80;99.90;;;;;;1837496;76;21148;-78
2021/10/29 02:52:27;;;;;;;31.77;16.17;;;3.90;99.90;;;;;;1840936;76;21106;-78
2021/10/29 02:54:54;;;;;;;74.30;15.70;;;4.00;99.90;;;;;;1836238;76;21062;-79
2021/10/29 02:57:20;;;;;;;43.08;15.50;;;4.00;99.90;;;;;;1832996;76;21070;-77
2021/10/29 02:59:46;;;;;;;86.28;15.60;;;4.00;99.90;;;;;;1839954;76;21168;-78
2021/10/29 03:02:12;;;;;;;40.85;13.22;;;3.80;99.90;;;;;;1812809;78;21103;-78
2021/10/29 03:04:38;;;;;;;33.02;12.55;;;3.70;99.90;;;;;;1826145;77;21104;-78
2021/10/29 03:07:04;;;;;;;88.97;13.85;;;3.70;99.90;;;;;;1848406;77;21093;-78
2021/10/29 03:09:31;;;;;;;22.17;11.93;;;3.70;99.90;;;;;;1825132;77;21178;-78
2021/10/29 03:11:57;;;;;;;24.50;13.10;;;3.70;99.90;;;;;;1821508;76;21143;-78
2021/10/29 03:14:23;;;;;;;33.65;14.15;;;3.80;99.90;;;;;;1831462;76;21084;-78
2021/10/29 03:16:49;;;;;;;32.40;13.35;;;3.70;99.90;;;;;;1822252;77;21084;-78
2021/10/29 03:19:15;;;;;;;26.50;12.20;;;3.80;99.90;;;;;;1829175;76;21081;-78
2021/10/29 03:21:42;;;;;;;20.70;11.38;;;3.70;99.90;;;;;;1839180;76;21219;-78
2021/10/29 03:24:08;;;;;;;102.75;13.93;;;3.80;99.90;;;;;;1841906;76;21163;-77
2021/10/29 03:26:34;;;;;;;14.15;10.80;;;3.80;99.90;;;;;;1819800;77;21459;-78
2021/10/29 03:29:00;;;;;;;25.80;10.70;;;3.80;99.90;;;;;;1853063;75;21468;-78
2021/10/29 03:31:27;;;;;;;59.75;11.43;;;3.80;99.90;;;;;;1879268;75;21099;-78
2021/10/29 03:33:54;;;;;;;99.17;12.03;;;3.70;99.90;;;;;;1870846;75;21186;-77
2021/10/29 03:36:20;;;;;;;82.75;12.35;;;3.70;99.90;;;;;;1855533;75;21093;-78
2021/10/29 03:41:19;;;;;;;58.20;12.33;;;3.80;99.90;;;;;;1826511;76;21245;-79
2021/10/29 03:43:55;;;;;;;21.42;10.43;;;3.80;99.90;;;;;;1801234;77;21209;-78
2021/10/29 03:46:21;;;;;;;35.05;12.25;;;3.70;99.90;;;;;;1825971;77;21436;-78
2021/10/29 03:51:43;;;;;;;16.97;11.57;;;3.70;99.90;;;;;;1828226;76;21144;-78
2021/10/29 03:54:17;;;;;;;59.00;11.50;;;3.70;99.90;;;;;;1812924;77;21072;-78
2021/10/29 03:59:14;;;;;;;69.77;12.63;;;3.70;99.90;;;;;;1791193;77;21172;-78
2021/10/29 04:01:40;;;;;;;28.32;11.25;;;3.70;99.90;;;;;;1843013;76;21466;-78
2021/10/29 04:04:07;;;;;;;50.78;12.47;;;3.70;99.90;;;;;;1824601;76;21449;-78
2021/10/29 04:06:33;;;;;;;46.20;12.70;;;3.70;99.90;;;;;;1841418;76;21463;-78
2021/10/29 04:08:59;;;;;;;83.42;12.85;;;3.70;99.90;;;;;;1839661;76;21462;-78
2021/10/29 04:11:27;;;;;;;47.20;11.90;;;3.70;99.90;;;;;;1821445;76;21070;-78
2021/10/29 04:13:53;;;;;;;20.45;11.88;;;3.60;99.90;;;;;;1839720;76;21087;-78
2021/10/29 04:16:20;;;;;;;62.48;12.07;;;3.70;99.90;;;;;;1846865;76;21140;-78
2021/10/29 04:18:46;;;;;;;85.32;11.88;;;3.70;99.90;;;;;;1840259;76;21090;-78
2021/10/29 04:21:12;;;;;;;34.20;11.12;;;3.70;99.90;;;;;;1843892;76;21097;-78
2021/10/29 04:23:38;;;;;;;77.00;12.25;;;3.70;99.90;;;;;;1839685;76;21099;-78
2021/10/29 04:26:04;;;;;;;62.25;10.93;;;3.60;99.90;;;;;;1845622;76;21062;-78
2021/10/29 04:28:30;;;;;;;69.62;11.08;;;3.70;99.90;;;;;;1815581;77;21155;-78
2021/10/29 04:30:59;;;;;;;107.32;11.78;;;3.60;99.90;;;;;;1850977;76;21470;-77
2021/10/29 04:33:24;;;;;;;54.38;11.38;;;3.60;99.90;;;;;;1835463;76;21211;-78
2021/10/29 04:35:50;;;;;;;104.15;11.80;;;3.60;99.90;;;;;;1832977;76;21140;-78
2021/10/29 04:38:16;;;;;;;32.23;10.30;;;3.60;99.90;;;;;;1853663;75;21099;-78
2021/10/29 04:40:43;;;;;;;46.55;10.53;;;3.50;99.90;;;;;;1842065;76;21086;-77
2021/10/29 04:43:09;;;;;;;55.88;11.33;;;3.60;99.90;;;;;;1846486;76;21264;-79
2021/10/29 04:45:35;;;;;;;17.73;9.80;;;3.50;99.90;;;;;;1840393;76;21128;-78
2021/10/29 04:48:01;;;;;;;98.60;13.13;;;3.60;99.90;;;;;;1843004;76;21143;-77
2021/10/29 04:50:27;;;;;;;51.98;10.00;;;3.70;99.90;;;;;;1843700;76;21083;-77
2021/10/29 04:52:53;;;;;;;52.73;12.15;;;3.70;99.90;;;;;;1846592;75;21157;-77
2021/10/29 04:55:19;;;;;;;60.05;10.95;;;3.70;99.90;;;;;;1841453;76;21092;-77
2021/10/29 04:57:46;;;;;;;58.65;11.08;;;3.70;99.90;;;;;;1833214;76;21232;-77
2021/10/29 05:00:12;;;;;;;41.63;10.40;;;3.70;99.90;;;;;;1848822;76;21216;-77
2021/10/29 05:02:38;;;;;;;27.02;10.28;;;3.70;99.90;;;;;;1838152;76;21090;-78
2021/10/29 05:05:04;;;;;;;44.95;10.20;;;3.60;99.90;;;;;;1845427;76;21063;-78
2021/10/29 05:07:30;;;;;;;56.02;10.18;;;3.60;99.90;;;;;;1839572;77;21180;-78
2021/10/29 05:09:56;;;;;;;66.95;9.93;;;3.60;99.90;;;;;;1846095;76;21090;-76
2021/10/29 05:12:23;;;;;;;85.15;9.70;;;3.60;99.90;;;;;;1840062;76;21077;-79
2021/10/29 05:14:49;;;;;;;30.62;10.08;;;3.50;99.90;;;;;;1844365;76;21177;-78
2021/10/29 05:17:16;;;;;;;16.42;8.78;;;3.50;99.90;;;;;;1831764;76;21098;-79
2021/10/29 05:19:42;;;;;;;29.57;9.43;;;3.50;99.90;;;;;;1840875;76;21136;-79
2021/10/29 05:22:08;;;;;;;23.95;8.18;;;3.50;99.90;;;;;;1839967;76;21094;-78
2021/10/29 05:24:35;;;;;;;34.38;8.83;;;3.40;99.90;;;;;;1830135;76;21086;-78
2021/10/29 05:27:01;;;;;;;19.25;10.30;;;3.40;99.90;;;;;;1850947;76;21231;-81
2021/10/29 05:29:27;;;;;;;16.17;8.68;;;3.50;99.90;;;;;;1835930;76;21178;-81
2021/10/29 05:31:53;;;;;;;22.52;9.45;;;3.40;99.90;;;;;;1835400;76;21090;-78
2021/10/29 05:34:19;;;;;;;77.32;10.70;;;3.40;99.90;;;;;;1843965;76;21539;-78
2021/10/29 05:36:45;;;;;;;55.65;10.75;;;3.50;99.90;;;;;;1840352;77;21514;-79
2021/10/29 05:39:12;;;;;;;20.97;9.05;;;3.40;99.90;;;;;;1839438;76;21507;-79
2021/10/29 05:41:39;;;;;;;67.85;10.75;;;3.50;99.90;;;;;;1846177;76;21110;-77
2021/10/29 05:44:06;;;;;;;32.42;10.55;;;3.40;99.90;;;;;;1845563;76;21074;-77
2021/10/29 05:46:32;;;;;;;48.60;11.35;;;3.40;99.90;;;;;;1838765;76;21089;-77
2021/10/29 05:48:58;;;;;;;44.93;10.82;;;3.40;99.90;;;;;;1836133;76;21085;-77
2021/10/29 05:51:25;;;;;;;39.27;10.88;;;3.40;99.90;;;;;;1841252;76;21098;-76
2021/10/29 05:54:04;;;;;;;32.08;9.88;;;3.40;99.90;;;;;;1838752;76;21208;-81
2021/10/29 05:56:21;;;;;;;18.48;11.25;;;3.50;99.90;;;;;;1833399;76;21534;-84
2021/10/29 05:58:47;;;;;;;13.78;10.53;;;3.60;99.90;;;;;;1826609;76;21086;-87
2021/10/29 06:01:13;;;;;;;97.75;11.40;;;3.70;99.90;;;;;;1825425;76;21203;-82
2021/10/29 06:03:39;;;;;;;41.85;12.03;;;3.70;99.90;;;;;;1839377;76;21219;-83
2021/10/29 06:06:05;;;;;;;78.17;12.80;;;3.70;99.90;;;;;;1833421;76;21082;-81
2021/10/29 06:08:31;;;;;;;35.00;11.40;;;3.60;99.90;;;;;;1848057;76;21094;-80
2021/10/29 06:10:57;;;;;;;30.92;11.12;;;3.60;99.90;;;;;;1839687;76;21059;-86
2021/10/29 06:13:23;;;;;;;30.23;11.50;;;3.70;99.90;;;;;;1831351;76;21058;-86
2021/10/29 06:15:50;;;;;;;14.05;11.38;;;3.60;99.90;;;;;;1824293;76;21087;-84
2021/10/29 06:18:26;;;;;;;19.12;9.25;;;3.80;99.90;;;;;;1852375;76;21094;-84
2021/10/29 06:20:54;;;;;;;13.75;8.80;;;3.90;99.90;;;;;;1837071;76;21617;-87
2021/10/29 06:23:25;;;;;;;65.47;12.03;;;3.90;99.90;;;;;;1847188;76;21067;-86
2021/10/29 06:25:49;;;;;;;22.22;9.40;;;3.90;99.90;;;;;;1832594;76;21160;-87
2021/10/29 06:28:23;;;;;;;27.20;9.70;;;3.80;99.90;;;;;;1846436;76;21481;-86
2021/10/29 06:30:43;;;;;;;24.35;9.20;;;3.90;99.90;;;;;;1828671;76;21163;-82
2021/10/29 06:33:11;;;;;;;40.00;11.55;;;3.90;99.90;;;;;;1847682;76;21078;-82
2021/10/29 06:35:37;;;;;;;44.67;10.98;;;3.80;99.90;;;;;;1847371;76;21262;-78
2021/10/29 06:38:03;;;;;;;33.30;11.53;;;3.80;99.90;;;;;;1829247;76;21090;-87
2021/10/29 06:40:31;;;;;;;28.52;10.78;;;3.80;99.90;;;;;;1837585;76;21081;-87
2021/10/29 06:43:01;;;;;;;31.65;11.75;;;3.90;99.90;;;;;;1830819;76;21581;-83
2021/10/29 06:48:36;;;;;;;30.45;11.22;;;3.80;99.90;;;;;;1842864;76;21075;-86
2021/10/29 07:01:37;;;;;;;24.85;10.35;;;3.90;99.90;;;;;;1873738;75;21562;-85
2021/10/29 07:41:51;;;;;;;14.43;10.27;;;5.20;99.90;;;;;;1878394;75;21527;-83
2021/10/29 07:44:19;;;;;;;14.78;10.82;;;5.20;99.90;;;;;;1862272;75;21103;-81
2021/10/29 07:46:44;;;;;;;14.75;9.85;;;5.20;99.90;;;;;;1868405;75;21179;-81
2021/10/29 07:49:11;;;;;;;14.23;9.98;;;5.30;99.90;;;;;;1866175;75;21166;-81
2021/10/29 07:51:38;;;;;;;15.10;9.03;;;5.50;99.90;;;;;;1873311;74;21053;-82
2021/10/29 07:54:04;;;;;;;17.07;9.03;;;5.70;99.90;;;;;;1883375;75;21480;-81
2021/10/29 07:56:31;;;;;;;14.00;8.63;;;5.50;99.90;;;;;;1869823;75;21165;-82
2021/10/29 07:58:57;;;;;;;11.85;8.30;;;5.60;99.90;;;;;;1872965;75;21084;-81
2021/10/29 08:01:23;;;;;;;12.25;7.75;;;5.80;99.90;;;;;;1874004;74;21165;-79
2021/10/29 08:03:49;;;;;;;8.75;7.30;;;6.00;99.90;;;;;;1879494;75;21080;-82
2021/10/29 08:06:15;;;;;;;13.93;9.10;;;6.00;99.90;;;;;;1863667;74;21081;-88
2021/10/29 08:08:42;;;;;;;11.25;7.83;;;5.80;99.90;;;;;;1887843;75;21110;-84
2021/10/29 08:11:08;;;;;;;9.43;6.92;;;6.10;99.90;;;;;;1854882;76;21096;-85
2021/10/29 08:13:34;;;;;;;12.10;7.15;;;6.10;99.90;;;;;;1884837;75;21153;-80
2021/10/29 08:16:04;;;;;;;8.55;7.42;;;6.20;99.90;;;;;;1878787;75;21166;-81
2021/10/29 08:18:28;;;;;;;13.95;7.62;;;6.30;99.90;;;;;;1863883;75;21076;-83
2021/10/29 08:20:55;;;;;;;10.98;8.23;;;6.30;99.90;;;;;;1870782;75;21088;-81
2021/10/29 08:23:21;;;;;;;12.70;9.03;;;6.00;99.90;;;;;;1865160;75;21081;-82
2021/10/29 08:25:47;;;;;;;12.58;7.72;;;6.00;99.90;;;;;;1869931;75;21197;-89
2021/10/29 08:28:13;;;;;;;12.75;8.30;;;6.30;99.90;;;;;;1867060;75;21167;-81
2021/10/29 08:30:40;;;;;;;9.88;7.97;;;6.40;99.90;;;;;;1884208;74;21209;-80
2021/10/29 08:33:07;;;;;;;9.40;7.83;;;6.70;99.90;;;;;;1870235;74;21136;-80
2021/10/29 08:35:33;;;;;;;11.22;7.72;;;7.20;99.90;;;;;;1870024;74;21274;-84
2021/10/29 08:38:00;;;;;;;10.13;7.08;;;7.20;99.90;;;;;;1879798;75;21154;-79
2021/10/29 08:40:26;;;;;;;11.40;8.68;;;7.30;99.90;;;;;;1864952;74;21076;-82
2021/10/29 08:42:52;;;;;;;7.90;7.05;;;7.70;99.90;;;;;;1867728;75;21191;-79
2021/10/29 08:45:18;;;;;;;9.13;6.72;;;8.20;99.90;;;;;;1869624;75;21062;-81
2021/10/29 08:47:45;;;;;;;13.80;8.00;;;8.40;99.90;;;;;;1859865;75;21163;-85
2021/10/29 08:50:11;;;;;;;11.95;7.33;;;8.50;99.90;;;;;;1881254;74;21527;-89
2021/10/29 08:52:39;;;;;;;10.43;6.80;;;8.60;99.90;;;;;;1870087;76;21080;-86
2021/10/29 08:55:07;;;;;;;9.48;6.40;;;8.40;99.90;;;;;;1860201;75;21543;-86
2021/10/29 08:57:33;;;;;;;13.15;6.42;;;8.50;99.90;;;;;;1867586;75;21136;-84
2021/10/29 08:59:59;;;;;;;14.00;6.45;;;9.00;99.90;;;;;;1867857;74;21093;-86
2021/10/29 09:02:29;;;;;;;11.95;7.90;;;8.90;99.90;;;;;;1881274;75;21089;-88
2021/10/29 09:05:00;;;;;;;7.60;6.50;;;9.00;99.90;;;;;;1881681;74;21537;-85
2021/10/29 09:07:34;;;;;;;;;;;9.20;99.90;;;;;;1858772;75;21239;-86
2021/10/29 09:31:48;;;;;;;11.65;7.70;;;10.60;99.90;;;;;;1874323;74;21069;-80
2021/10/29 09:34:15;;;;;;;10.43;7.08;;;11.20;99.90;;;;;;1869291;74;21163;-80
2021/10/29 09:36:42;;;;;;;9.88;7.40;;;11.40;99.90;;;;;;1865750;75;21167;-89
2021/10/29 09:39:08;;;;;;;13.72;7.67;;;11.80;99.90;;;;;;1859578;75;21073;-87
2021/10/29 09:41:35;;;;;;;11.70;7.50;;;12.30;99.90;;;;;;1872072;74;21075;-87
2021/10/29 09:44:01;;;;;;;11.35;7.10;;;12.40;99.90;;;;;;1879223;76;21252;-88
2021/10/29 09:46:27;;;;;;;18.62;7.40;;;12.20;99.90;;;;;;1875304;75;21128;-87
2021/10/29 09:49:01;;;;;;;14.80;7.53;;;12.50;99.90;;;;;;1875634;74;21089;-87
2021/10/29 09:51:23;;;;;;;11.53;6.95;;;12.50;99.90;;;;;;1878376;75;21117;-89
2021/10/29 09:58:56;;;;;;;;;;;12.30;99.90;;;;;;1872960;74;21090;-87
2021/10/29 10:01:23;;;;;;;10.80;7.78;;;13.10;99.90;;;;;;1876491;74;20170;-87
2021/10/29 10:03:50;;;;;;;8.88;6.90;;;13.10;99.90;;;;;;1863448;74;21155;-86
2021/10/29 10:06:16;;;;;;;15.25;7.00;;;13.40;99.90;;;;;;1856429;75;21307;-88
2021/10/29 10:08:42;;;;;;;10.50;7.17;;;14.10;99.90;;;;;;1885078;75;21201;-86
2021/10/29 10:11:09;;;;;;;12.45;8.00;;;14.10;99.90;;;;;;1869370;75;21265;-87
2021/10/29 10:13:35;;;;;;;18.90;7.95;;;13.90;99.90;;;;;;1854550;75;21096;-85
2021/10/29 10:16:02;;;;;;;11.43;7.75;;;13.80;99.90;;;;;;1869400;75;21062;-91
2021/10/29 10:18:29;;;;;;;9.83;7.80;;;13.50;99.90;;;;;;1852728;76;21067;-89
2021/10/29 10:20:55;;;;;;;14.20;7.22;;;13.60;99.90;;;;;;1854151;76;21238;-89
2021/10/29 10:23:24;;;;;;;8.68;7.65;;;13.90;99.90;;;;;;1880932;75;21149;-86
2021/10/29 10:41:40;;;;;;;12.30;7.85;;;15.10;99.90;;;;;;1880861;74;21125;-85
2021/10/29 10:44:07;;;;;;;11.73;8.63;;;15.40;99.90;;;;;;1858619;75;21073;-90
2021/10/29 10:46:24;;;;;;;9.53;7.78;;;15.50;99.90;;;;;;1880544;75;21291;-87
2021/10/29 10:51:22;;;;;;;9.75;8.03;;;15.10;99.90;;;;;;1883844;74;21097;-89
2021/10/29 10:53:54;;;;;;;12.33;8.50;;;15.00;99.90;;;;;;1865847;74;21085;-90
2021/10/29 10:56:44;;;;;;;11.12;7.30;;;15.30;99.90;;;;;;1864092;75;21121;-86
2021/10/29 10:59:11;;;;;;;9.55;7.33;;;15.70;99.90;;;;;;1860067;75;21150;-88
2021/10/29 11:04:14;;;;;;;11.40;8.30;;;16.00;99.90;;;;;;1867799;74;21113;-87
2021/10/29 11:06:39;;;;;;;13.20;8.00;;;16.00;99.90;;;;;;1867074;75;21101;-89
2021/10/29 11:11:44;;;;;;;10.68;7.00;;;16.80;99.90;;;;;;1870434;75;21155;-90
2021/10/29 11:14:10;;;;;;;9.25;7.00;;;17.40;99.90;;;;;;1882043;76;21096;-87
2021/10/29 11:16:38;;;;;;;11.10;6.95;;;17.30;99.90;;;;;;1861814;75;21158;-88
2021/10/29 11:19:07;;;;;;;12.80;6.85;;;18.00;99.90;;;;;;1862242;75;21089;-85
2021/10/29 11:21:36;;;;;;;10.08;6.92;;;17.60;99.90;;;;;;1868972;75;21117;-87
2021/10/29 11:24:02;;;;;;;8.75;7.42;;;16.90;99.90;;;;;;1862969;76;21170;-85
2021/10/29 11:26:28;;;;;;;10.35;7.58;;;17.20;99.90;;;;;;1880464;76;21145;-86
2021/10/29 11:28:56;;;;;;;13.62;7.28;;;16.90;99.90;;;;;;1868255;75;21076;-86
2021/10/29 11:31:22;;;;;;;9.70;7.60;;;17.50;99.90;;;;;;1873405;76;21085;-86
2021/10/29 11:33:50;;;;;;;8.58;7.20;;;17.50;99.90;;;;;;1861556;75;21095;-89
2021/10/29 11:36:16;;;;;;;10.45;7.22;;;17.20;99.90;;;;;;1878004;76;21041;-87
2021/10/29 11:38:42;;;;;;;13.10;7.47;;;17.30;99.90;;;;;;1872549;75;21091;-85
2021/10/29 11:41:08;;;;;;;7.95;7.08;;;16.60;99.90;;;;;;1868027;75;21073;-87
2021/10/29 11:43:34;;;;;;;11.53;7.55;;;17.00;99.90;;;;;;1870446;76;21196;-80
2021/10/29 11:46:05;;;;;;;8.50;7.33;;;17.20;99.90;;;;;;1874813;76;21083;-80
2021/10/29 11:48:28;;;;;;;11.15;6.95;;;17.90;99.90;;;;;;1860242;75;21460;-82
2021/10/29 11:50:54;;;;;;;9.60;7.30;;;18.30;99.90;;;;;;1865365;76;21500;-82
2021/10/29 11:53:20;;;;;;;10.43;6.92;;;18.50;99.90;;;;;;1880181;76;21441;-82
2021/10/29 11:55:55;;;;;;;8.08;6.33;;;18.20;99.90;;;;;;1860109;75;21497;-84
2021/10/29 11:58:33;;;;;;;11.00;6.30;;;18.50;99.90;;;;;;1872294;76;21112;-83
2021/10/29 12:06:15;;;;;;;6.67;5.87;;;18.70;99.90;;;;;;1866260;75;21465;-82
2021/10/29 12:08:30;;;;;;;6.97;6.12;;;18.80;99.90;;;;;;1873640;76;21212;-85
2021/10/29 12:10:55;;;;;;;9.60;6.10;;;18.90;99.90;;;;;;1867163;75;21273;-85
2021/10/29 12:13:23;;;;;;;10.32;5.58;;;18.60;99.90;;;;;;1878014;76;21057;-85
2021/10/29 12:15:50;;;;;;;9.18;6.00;;;18.60;99.90;;;;;;1858550;76;21084;-82
2021/10/29 12:18:16;;;;;;;7.95;5.97;;;19.20;99.90;;;;;;1876765;76;21089;-83
2021/10/29 12:20:47;;;;;;;10.78;5.62;;;19.40;99.90;;;;;;1864705;76;21081;-75
2021/10/29 12:23:14;;;;;;;9.53;5.72;;;19.20;99.90;;;;;;1877672;75;21177;-79
2021/10/29 12:25:58;;;;;;;7.42;5.60;;;19.10;99.90;;;;;;1871684;76;21101;-85
2021/10/29 12:28:26;;;;;;;6.70;6.03;;;18.70;99.90;;;;;;1866346;76;21076;-82
2021/10/29 12:52:46;;;;;;;6.17;4.90;;;19.90;99.90;;;;;;1875774;75;21080;-77
2021/10/29 13:02:53;;;;;;;6.95;4.80;;;20.30;99.90;;;;;;1876198;75;21217;-79
2021/10/29 13:05:19;;;;;;;6.78;5.22;;;20.70;99.90;;;;;;1861671;76;21076;-82
2021/10/29 13:07:46;;;;;;;9.78;4.87;;;21.00;99.90;;;;;;1869910;76;21084;-79
2021/10/29 13:10:12;;;;;;;6.62;5.17;;;21.30;99.90;;;;;;1858837;76;21151;-77
2021/10/29 13:12:51;;;;;;;5.80;4.83;;;21.00;99.90;;;;;;1869542;75;21092;-78
2021/10/29 13:15:12;;;;;;;6.65;4.72;;;21.10;99.90;;;;;;1871842;74;21065;-78
2021/10/29 13:17:42;;;;;;;6.87;4.67;;;21.10;99.90;;;;;;1867508;76;21125;-79
2021/10/29 13:20:21;;;;;;;4.92;4.08;;;21.40;99.90;;;;;;1863533;74;21121;-79
2021/10/29 13:51:51;;;;;;;6.67;4.30;;;20.90;99.90;;;;;;1864639;76;21508;-80
2021/10/29 14:02:36;;;;;;;11.97;5.05;;;21.10;99.90;;;;;;1873188;75;21061;-78
2021/10/29 14:32:14;;;;;;;7.20;4.25;;;20.60;99.90;;;;;;1877843;75;21649;-78
2021/10/29 14:37:33;;;;;;;4.80;3.83;;;20.80;99.90;;;;;;1780668;79;21192;-80
2021/10/29 14:40:12;;;;;;;6.95;4.25;;;20.70;99.90;;;;;;1847867;76;21503;-80
2021/10/29 14:42:40;;;;;;;6.70;4.40;;;20.80;99.90;;;;;;1875650;74;21479;-79
2021/10/29 14:45:10;;;;;;;8.23;4.50;;;19.90;99.90;;;;;;1864887;76;21196;-80
2021/10/29 14:47:54;;;;;;;7.42;3.87;;;19.20;99.90;;;;;;1872332;74;21120;-80
2021/10/29 14:50:33;;;;;;;6.80;4.00;;;19.10;99.90;;;;;;1866507;76;21105;-81
2021/10/29 15:01:04;;;;;;;6.45;4.05;;;19.60;99.90;;;;;;1872082;76;21146;-82
2021/10/29 15:16:43;;;;;;;6.62;3.80;;;21.20;99.90;;;;;;1864496;76;21135;-82
2021/10/29 15:27:15;;;;;;;6.00;3.60;;;20.30;99.90;;;;;;1844110;76;21073;-80
2021/10/29 15:45:44;;;;;;;8.25;4.20;;;18.00;99.90;;;;;;1866509;75;21206;-81
2021/10/29 15:48:14;;;;;;;8.03;3.80;;;17.30;99.90;;;;;;1862133;76;21123;-80
2021/10/29 15:50:37;;;;;;;5.83;3.62;;;16.80;99.90;;;;;;1877477;76;21460;-78
2021/10/29 15:53:03;;;;;;;5.08;3.50;;;16.40;99.90;;;;;;1876284;76;22664;-79
2021/10/29 15:55:40;;;;;;;6.78;4.47;;;15.80;99.90;;;;;;1854548;76;21543;-78
2021/10/29 15:58:13;;;;;;;6.42;4.10;;;15.60;99.90;;;;;;1875708;75;21202;-79
2021/10/29 16:03:16;;;;;;;13.30;7.83;;;14.80;99.90;;;;;;1874052;76;21548;-80
2021/10/29 16:19:20;;;;;;;9.93;5.03;;;12.80;99.90;;;;;;1878387;76;21147;-78
2021/10/29 16:21:46;;;;;;;11.03;5.33;;;12.60;99.90;;;;;;1864184;76;21155;-78
2021/10/29 16:24:12;;;;;;;12.68;6.05;;;12.40;99.90;;;;;;1857829;75;21158;-78
2021/10/29 16:26:38;;;;;;;10.23;5.80;;;12.20;99.90;;;;;;1870778;76;21670;-80
2021/10/29 16:29:08;;;;;;;19.55;5.87;;;12.10;99.90;;;;;;1878904;76;21645;-80
2021/10/29 16:31:37;;;;;;;8.45;5.55;;;12.00;99.90;;;;;;1873343;74;21195;-80
2021/10/29 16:34:00;;;;;;;12.53;6.72;;;11.90;99.90;;;;;;1866297;76;21268;-81
2021/10/29 16:36:26;;;;;;;10.18;5.60;;;11.80;99.90;;;;;;1878166;75;21170;-81
2021/10/29 16:38:52;;;;;;;8.85;4.95;;;11.60;99.90;;;;;;1858375;76;21172;-79
2021/10/29 16:41:19;;;;;;;10.00;5.78;;;11.60;99.90;;;;;;1870273;75;21083;-82
2021/10/29 16:43:45;;;;;;;9.80;6.05;;;11.40;99.90;;;;;;1879576;76;21081;-78
2021/10/29 16:46:12;;;;;;;10.85;7.10;;;11.20;99.90;;;;;;1876177;76;21453;-85
2021/10/29 16:48:38;;;;;;;11.63;5.70;;;11.20;99.90;;;;;;1865183;75;21598;-81
2021/10/29 16:51:08;;;;;;;9.33;5.97;;;11.10;99.90;;;;;;1870697;76;21476;-84
2021/10/29 16:53:32;;;;;;;8.70;5.78;;;11.00;99.90;;;;;;1874081;76;21095;-82
2021/10/29 16:55:59;;;;;;;12.82;5.78;;;10.90;99.90;;;;;;1865241;76;21124;-79
2021/10/29 16:58:27;;;;;;;8.80;6.30;;;10.90;99.90;;;;;;1862385;75;21061;-80
2021/10/29 17:00:54;;;;;;;6.85;5.25;;;10.90;99.90;;;;;;1871972;75;21137;-80
2021/10/29 17:03:20;;;;;;;10.58;5.80;;;10.80;99.90;;;;;;1861150;76;21092;-79
2021/10/29 17:05:46;;;;;;;11.60;5.47;;;10.70;99.90;;;;;;1863822;76;21082;-79
2021/10/29 17:08:15;;;;;;;8.20;5.35;;;10.60;99.90;;;;;;1868352;76;21145;-83
2021/10/29 17:10:42;;;;;;;7.42;5.37;;;10.50;99.90;;;;;;1867213;76;21496;-81
2021/10/29 17:13:08;;;;;;;10.72;5.78;;;10.30;99.90;;;;;;1861758;76;21221;-84